Main page
METAR-TAF:

METAR-TAF

Airports :

Budapest Ferenc Liszt International Airport

Budapest, Hungary

latitude: 47-26N, longitude: 019-16E, elevation: 151 m

Current weather observation

The report was made 28 minutes ago, at 12:00 UTC
Wind 8 kt from the East, varying between East/Northeast and Southeast
Temperature 9°C
Humidity 21%
Pressure 1021 hPa
Visibility 10 km or more
no clouds below 1500 m and no cumulonimbus

METAR: LHBP 011200Z 09008KT 060V130 CAVOK 09/M12 Q1021 NOSIG

Time: 14:28 (12:28 UTC)

Forecast

The report was made 1 hour and 13 minutes ago, at 11:15 UTC
Forecast valid from 01 at 12 UTC to 02 at 12 UTC
Wind 6 kt from the East/Northeast
Visibility 10 km or more
no clouds below 1500 m and no cumulonimbus
Becoming
from 01 at 12 UTC to 01 at 14 UTC
Wind 3 kt from variable directions
Becoming
from 02 at 07 UTC to 02 at 09 UTC
Wind 7 kt from the South/Southwest

TAF: LHBP 011115Z 0112/0212 06006KT CAVOK BECMG 0112/0114 VRB03KT BECMG 0207/0209 21007KT

Weather observations and forecasts of more than 4000 airports (METAR and TAF reports).

The available stations are represented by yellow and red dots on the map.

Hover mouse over dot to see the name of the station.

Then click to see weather observations and forecasts.

To change the map : click on the green buttons with a black cross to zoom in, on the green button with a dash to zoom out, or on the green arrows for adjacent maps.


METAR-TAF: